createdAt,value
2022-08-19T00:03:49.039Z,0
2022-08-19T00:08:53.532Z,0
2022-08-19T00:13:57.083Z,0
2022-08-19T00:19:01.629Z,0
2022-08-19T00:24:06.141Z,0
2022-08-19T00:29:09.723Z,0
2022-08-19T00:34:14.341Z,0
2022-08-19T00:39:18.814Z,0
2022-08-19T00:44:26.831Z,0
2022-08-19T00:49:26.876Z,0
2022-08-19T00:54:31.417Z,0
2022-08-19T00:59:58.740Z,0
2022-08-19T01:04:39.489Z,0
2022-08-19T01:09:43.064Z,0
2022-08-19T01:14:47.606Z,0
2022-08-19T01:19:52.136Z,0
2022-08-19T01:24:56.642Z,0
2022-08-19T01:30:00.192Z,0
2022-08-19T01:35:04.719Z,0
2022-08-19T01:40:09.569Z,0
2022-08-19T01:45:12.811Z,0
2022-08-19T01:50:17.333Z,0
2022-08-19T01:55:21.868Z,0
2022-08-19T02:00:25.383Z,0
2022-08-19T02:05:29.981Z,0
2022-08-19T02:10:34.463Z,0
2022-08-19T02:15:38.042Z,0
2022-08-19T02:20:42.573Z,0
2022-08-19T02:25:47.111Z,0
2022-08-19T02:30:51.602Z,0
2022-08-19T02:35:55.147Z,0
2022-08-19T02:40:59.723Z,0
2022-08-19T02:46:04.253Z,0
2022-08-19T02:51:07.800Z,0
2022-08-19T02:56:12.448Z,0
2022-08-19T03:01:16.949Z,0
2022-08-19T03:06:20.419Z,0
2022-08-19T03:11:24.979Z,0
2022-08-19T03:16:29.454Z,0
2022-08-19T03:21:33.030Z,0
2022-08-19T03:26:37.573Z,0
2022-08-19T03:31:51.097Z,0
2022-08-19T03:36:46.636Z,0
2022-08-19T03:41:50.194Z,0
2022-08-19T03:46:54.703Z,0
2022-08-19T03:51:59.238Z,0
2022-08-19T03:57:02.817Z,0
2022-08-19T04:02:07.294Z,0
2022-08-19T04:07:11.831Z,0
2022-08-19T04:12:15.410Z,0
2022-08-19T04:17:19.944Z,0
2022-08-19T04:22:24.491Z,5
2022-08-19T04:27:27.991Z,5
2022-08-19T04:32:32.555Z,11
2022-08-19T04:37:37.068Z,16
2022-08-19T04:42:41.599Z,22
2022-08-19T04:47:49.382Z,33
2022-08-19T04:52:49.722Z,45
2022-08-19T04:57:54.218Z,50
2022-08-19T05:02:57.772Z,61
2022-08-19T05:08:02.275Z,67
2022-08-19T05:13:06.838Z,73
2022-08-19T05:18:10.444Z,84
2022-08-19T05:23:18.538Z,101
2022-08-19T05:28:18.495Z,112
2022-08-19T05:33:23.030Z,123
2022-08-19T05:38:27.547Z,146
2022-08-19T05:43:31.089Z,163
2022-08-19T05:48:35.610Z,168
2022-08-19T05:53:40.166Z,185
2022-08-19T05:58:43.692Z,225
2022-08-19T06:03:48.239Z,253
2022-08-19T06:08:52.784Z,247
2022-08-19T06:13:59.649Z,236
2022-08-19T06:19:00.852Z,236
2022-08-19T06:24:05.382Z,241
2022-08-19T06:29:09.989Z,264
2022-08-19T06:34:13.492Z,309
2022-08-19T06:39:17.995Z,343
2022-08-19T06:44:22.588Z,416
2022-08-19T06:49:26.082Z,585
2022-08-19T06:54:31.066Z,624
2022-08-19T06:59:35.190Z,646
2022-08-19T07:04:38.718Z,635
2022-08-19T07:09:43.266Z,703
2022-08-19T07:14:47.782Z,725
2022-08-19T07:19:51.316Z,753
2022-08-19T07:24:55.882Z,748
2022-08-19T07:30:00.411Z,793
2022-08-19T07:35:04.922Z,860
2022-08-19T07:40:08.582Z,961
2022-08-19T07:45:13.043Z,871
2022-08-19T07:50:17.567Z,855
2022-08-19T07:55:42.549Z,967
2022-08-19T08:00:25.819Z,1147
2022-08-19T08:05:30.166Z,1271
2022-08-19T08:10:33.727Z,1299
2022-08-19T08:15:42.103Z,1057
2022-08-19T08:20:42.803Z,1321
2022-08-19T08:25:46.363Z,1496
2022-08-19T08:30:50.959Z,1501
2022-08-19T08:35:55.426Z,1518
2022-08-19T08:40:59.956Z,1068
2022-08-19T08:46:03.523Z,1355
2022-08-19T08:51:08.070Z,950
2022-08-19T08:56:12.579Z,1715
2022-08-19T09:01:16.173Z,1850
2022-08-19T09:06:20.655Z,1687
2022-08-19T09:11:42.880Z,967
2022-08-19T09:16:28.759Z,1704
2022-08-19T09:21:34.354Z,1411
2022-08-19T09:26:47.522Z,1552
2022-08-19T09:31:41.379Z,2036
2022-08-19T09:36:45.945Z,2013
2022-08-19T09:41:49.499Z,2210
2022-08-19T09:46:54.039Z,984
2022-08-19T09:51:58.593Z,1991
2022-08-19T09:57:04.671Z,855
2022-08-19T10:02:11.037Z,1260
2022-08-19T10:07:11.175Z,916
2022-08-19T10:12:14.756Z,725
2022-08-19T10:17:22.206Z,725
2022-08-19T10:22:23.842Z,2137
2022-08-19T10:27:28.378Z,618
2022-08-19T10:32:34.391Z,1957
2022-08-19T10:37:36.434Z,2171
2022-08-19T10:42:40.969Z,585
2022-08-19T10:47:44.538Z,2131
2022-08-19T10:52:50.636Z,911
2022-08-19T10:58:02.123Z,2238
2022-08-19T11:02:57.190Z,646
2022-08-19T11:08:01.713Z,1119
2022-08-19T11:13:06.231Z,1631
2022-08-19T11:18:13.344Z,843
2022-08-19T11:23:14.360Z,652
2022-08-19T11:28:18.877Z,2171
2022-08-19T11:33:23.393Z,2323
2022-08-19T11:38:26.978Z,2311
2022-08-19T11:43:35.498Z,2205
2022-08-19T11:48:36.020Z,2272
2022-08-19T11:53:39.615Z,2255
2022-08-19T11:58:44.145Z,2160
2022-08-19T12:03:48.796Z,2182
2022-08-19T12:08:52.219Z,1968
2022-08-19T12:13:56.774Z,1957
2022-08-19T12:19:01.294Z,933
2022-08-19T12:24:04.868Z,1918
2022-08-19T12:29:09.383Z,2070
2022-08-19T12:34:13.946Z,1080
2022-08-19T12:39:18.492Z,579
2022-08-19T12:44:31.868Z,2064
2022-08-19T12:49:52.048Z,2036
2022-08-19T12:54:31.090Z,2075
2022-08-19T12:59:34.681Z,810
2022-08-19T13:04:39.180Z,2053
2022-08-19T13:09:43.751Z,2075
2022-08-19T13:14:47.293Z,1580
2022-08-19T13:19:51.820Z,1951
2022-08-19T13:24:56.378Z,1918
2022-08-19T13:29:59.920Z,1951
2022-08-19T13:35:04.482Z,1749
2022-08-19T13:40:09.102Z,1681
2022-08-19T13:45:13.515Z,1923
2022-08-19T13:50:17.064Z,990
2022-08-19T13:55:24.879Z,1794
2022-08-19T14:00:25.271Z,1687
2022-08-19T14:05:29.730Z,1305
2022-08-19T14:10:33.271Z,1625
2022-08-19T14:15:37.840Z,1186
2022-08-19T14:20:42.396Z,1490
2022-08-19T14:25:46.900Z,630
2022-08-19T14:30:50.453Z,1428
2022-08-19T14:35:59.547Z,1383
2022-08-19T14:40:59.538Z,1361
2022-08-19T14:46:03.173Z,1265
2022-08-19T14:51:07.640Z,1170
2022-08-19T14:56:12.185Z,832
2022-08-19T15:01:15.761Z,528
2022-08-19T15:06:20.265Z,444
2022-08-19T15:11:24.787Z,945
2022-08-19T15:16:28.337Z,506
2022-08-19T15:21:32.864Z,849
2022-08-19T15:26:37.411Z,624
2022-08-19T15:31:41.925Z,663
2022-08-19T15:36:45.488Z,697
2022-08-19T15:41:50.006Z,658
2022-08-19T15:46:54.577Z,613
2022-08-19T15:51:58.098Z,669
2022-08-19T15:57:02.642Z,652
2022-08-19T16:02:07.541Z,708
2022-08-19T16:07:10.734Z,511
2022-08-19T16:12:15.300Z,573
2022-08-19T16:17:19.803Z,489
2022-08-19T16:22:23.378Z,388
2022-08-19T16:27:27.925Z,371
2022-08-19T16:32:32.448Z,343
2022-08-19T16:37:37.016Z,331
2022-08-19T16:42:40.494Z,354
2022-08-19T16:47:45.076Z,320
2022-08-19T16:52:49.618Z,309
2022-08-19T16:57:53.313Z,281
2022-08-19T17:02:57.701Z,253
2022-08-19T17:08:02.208Z,202
2022-08-19T17:13:05.792Z,180
2022-08-19T17:18:10.286Z,151
2022-08-19T17:23:14.863Z,135
2022-08-19T17:28:18.385Z,112
2022-08-19T17:33:22.921Z,101
2022-08-19T17:38:27.546Z,95
2022-08-19T17:43:33.361Z,101
2022-08-19T17:48:35.537Z,106
2022-08-19T17:53:40.081Z,95
2022-08-19T17:58:45.094Z,78
2022-08-19T18:03:48.178Z,73
2022-08-19T18:08:51.695Z,61
2022-08-19T18:13:56.267Z,45
2022-08-19T18:19:00.787Z,39
2022-08-19T18:24:05.363Z,28
2022-08-19T18:29:08.856Z,22
2022-08-19T18:34:13.412Z,16
2022-08-19T18:39:17.957Z,11
2022-08-19T18:44:21.485Z,5
2022-08-19T18:49:26.046Z,0
2022-08-19T18:54:30.555Z,0
2022-08-19T18:59:34.142Z,0
2022-08-19T19:04:38.659Z,0
2022-08-19T19:09:43.187Z,0
2022-08-19T19:14:49.479Z,0
2022-08-19T19:19:51.266Z,0
2022-08-19T19:24:55.769Z,0
2022-08-19T19:30:00.328Z,0
2022-08-19T19:35:03.850Z,0
2022-08-19T19:40:08.436Z,0
2022-08-19T19:45:12.942Z,0
2022-08-19T19:50:16.551Z,0
2022-08-19T19:55:20.991Z,0
2022-08-19T20:00:25.587Z,0
2022-08-19T20:05:29.113Z,0
2022-08-19T20:10:33.639Z,0
2022-08-19T20:15:42.387Z,0
2022-08-19T20:20:41.685Z,0
2022-08-19T20:25:46.283Z,0
2022-08-19T20:30:50.793Z,0
2022-08-19T20:35:55.298Z,0
2022-08-19T20:40:58.843Z,0
2022-08-19T20:46:03.391Z,0
2022-08-19T20:51:07.908Z,0
2022-08-19T20:56:11.491Z,0
2022-08-19T21:01:16.034Z,0
2022-08-19T21:06:20.529Z,0
2022-08-19T21:11:24.082Z,0
2022-08-19T21:16:28.631Z,0
2022-08-19T21:21:33.202Z,0
2022-08-19T21:26:36.739Z,0
2022-08-19T21:31:41.277Z,0
2022-08-19T21:36:45.806Z,0
2022-08-19T21:41:50.287Z,0
2022-08-19T21:46:53.857Z,0
2022-08-19T21:51:58.364Z,0
2022-08-19T21:57:02.902Z,0
2022-08-19T22:02:19.510Z,0
2022-08-19T22:07:10.999Z,0
2022-08-19T22:12:15.522Z,0
2022-08-19T22:17:19.111Z,0
2022-08-19T22:22:23.611Z,0
2022-08-19T22:27:27.205Z,0
2022-08-19T22:32:31.722Z,0
2022-08-19T22:37:36.243Z,0
2022-08-19T22:42:39.774Z,0
2022-08-19T22:47:44.340Z,0
2022-08-19T22:52:51.840Z,0
2022-08-19T22:57:52.426Z,0
2022-08-19T23:02:56.925Z,0
2022-08-19T23:08:01.476Z,0
2022-08-19T23:13:05.039Z,0
2022-08-19T23:18:09.558Z,0
2022-08-19T23:23:14.085Z,0
2022-08-19T23:28:18.636Z,0
2022-08-19T23:33:22.196Z,0
2022-08-19T23:38:26.705Z,0
2022-08-19T23:43:31.239Z,0
2022-08-19T23:48:34.821Z,0
2022-08-19T23:53:39.332Z,0
2022-08-19T23:58:43.884Z,0
